Buffalo, MT (59418)

9:33 AM MST on December 27, 2014 (GMT -0700)
Lewistown Municipal | Change Station
CLOSE
Current Station
Airport
Location: Lewistown,
Elevation: 4167 ft
Nearby Weather Stations
Active Advisory: Winter Weather Advisory

Elev 4167 ft 47.05 °N, 109.47 °W | Updated 39 minutes ago

Overcast
Overcast
24 °F
Feels Like 12 °F
N
13
Wind Variable Wind from SW

Today
High -- | Low -- °F
--% Chance of Precip.
Yesterday
High -- | Low -- °F
Precip. -- in
8:03 AM 4:36 PM
Waxing Crescent, 38% visible
Pressure 30.18 in
Visibility 10.0 miles
Clouds Overcast 4800 ft
Windchill 12 °F
Dew Point 15 °F
Humidity 69%
Rainfall 0.00 in
Snow Depth Not available.
UV 0 out of 12
Pollen .10 out of 12
Air Quality Not available.
Flu Activity Not available.
METAR KLWT 271554Z AUTO 23011KT 10SM OVC048 M04/M09 A3000 RMK AO2 SLP218 T10441094

More Conditions Fewer Conditions

Pressure 30.18 in
Visibility 10.0 miles
Clouds Overcast 4800 ft
Windchill 12 °F
Dew Point 15 °F
Humidity 69%
Rainfall 0.00 in
Snow Depth Not available.
UV 0 out of 12
Pollen .10 out of 12
Air Quality Not available.
Flu Activity Not available.
METAR KLWT 271554Z AUTO 23011KT 10SM OVC048 M04/M09 A3000 RMK AO2 SLP218 T10441094

More Conditions Fewer Conditions

10-Day Weather Forecast

Almanac

Astronomy

Dec. 27, 2014 Rise Set
Actual Time
Civil Twilight
Nautical Twilight
Astronomical Twilight
Moon
Length of Visible Light
Length of Day
Tomorrow will be .
, % of the Moon is Illuminated

Today's Extremes

State Highs State Lows

Community

WunderPhotos

Upload Photos

1,780,954 photos uploaded!

WunderBlogs® & News

Nearby

Air Quality

  Air Quality AQ Index Pollutant
Not available.

Snow Depth

Station Depth Elevation

Earthquake Activity

City Distance Mag. Time & Date
Minimum magnitude displayed is 2.5.

Coastal Water Temperatures

Place Temperature

Nearby Weather Stations